createdAt,value
2023-02-23T00:01:42.490Z,9.28
2023-02-23T00:04:09.087Z,9.26
2023-02-23T00:06:37.186Z,9.19
2023-02-23T00:09:28.013Z,9.12
2023-02-23T00:11:57.778Z,9.09
2023-02-23T00:14:28.731Z,9.19
2023-02-23T00:16:59.812Z,9.18
2023-02-23T00:19:26.270Z,9.04
2023-02-23T00:21:53.635Z,8.99
2023-02-23T00:24:21.237Z,8.96
2023-02-23T00:26:48.440Z,8.97
2023-02-23T00:29:17.782Z,8.92
2023-02-23T00:31:45.847Z,8.89
2023-02-23T00:34:14.514Z,8.83
2023-02-23T00:36:42.013Z,8.91
2023-02-23T00:39:29.245Z,8.87
2023-02-23T00:41:56.888Z,8.87
2023-02-23T00:44:24.566Z,8.87
2023-02-23T00:46:52.409Z,8.93
2023-02-23T00:49:21.662Z,8.91
2023-02-23T00:51:48.494Z,9.03
2023-02-23T00:54:16.926Z,8.95
2023-02-23T00:56:43.566Z,8.96
2023-02-23T00:59:10.618Z,8.95
2023-02-23T01:01:38.414Z,8.90
2023-02-23T01:04:06.169Z,8.83
2023-02-23T01:06:32.665Z,8.84
2023-02-23T01:08:59.313Z,8.92
2023-02-23T01:11:28.347Z,8.89
2023-02-23T01:13:56.813Z,8.84
2023-02-23T01:16:28.809Z,8.84
2023-02-23T01:18:57.364Z,8.83
2023-02-23T01:21:35.378Z,8.89
2023-02-23T01:24:02.261Z,9.00
2023-02-23T01:26:34.010Z,8.91
2023-02-23T01:29:08.616Z,8.84
2023-02-23T01:31:35.985Z,8.80
2023-02-23T01:34:03.554Z,8.83
2023-02-23T01:36:34.108Z,8.79
2023-02-23T01:39:00.494Z,8.73
2023-02-23T01:41:29.771Z,8.72
2023-02-23T01:44:04.071Z,8.71
2023-02-23T01:46:33.057Z,8.74
2023-02-23T01:49:00.097Z,8.75
2023-02-23T01:51:41.214Z,8.75
2023-02-23T01:54:14.319Z,8.76
2023-02-23T01:56:45.024Z,8.82
2023-02-23T01:59:15.223Z,8.81
2023-02-23T02:01:42.953Z,8.80
2023-02-23T02:04:16.323Z,8.79
2023-02-23T02:06:46.151Z,8.89
2023-02-23T02:09:19.522Z,8.93
2023-02-23T02:11:48.796Z,8.89
2023-02-23T02:14:18.889Z,8.83
2023-02-23T02:17:04.122Z,8.80
2023-02-23T02:19:45.614Z,8.80
2023-02-23T02:22:14.898Z,8.90
2023-02-23T02:24:58.055Z,8.90
2023-02-23T02:27:57.412Z,8.82
2023-02-23T02:30:57.807Z,8.72
2023-02-23T02:33:32.155Z,8.67
2023-02-23T02:36:13.729Z,8.71
2023-02-23T02:38:50.659Z,8.75
2023-02-23T02:41:29.367Z,8.76
2023-02-23T02:44:08.951Z,8.77
2023-02-23T02:46:40.358Z,8.84
2023-02-23T02:49:31.538Z,8.81
2023-02-23T02:52:14.848Z,8.73
2023-02-23T02:54:47.899Z,8.73
2023-02-23T02:57:16.993Z,8.74
2023-02-23T03:00:04.071Z,8.75
2023-02-23T03:02:51.578Z,8.80
2023-02-23T03:05:40.478Z,8.84
2023-02-23T03:08:33.379Z,8.83
2023-02-23T03:11:26.212Z,8.78
2023-02-23T03:14:26.157Z,8.69
2023-02-23T03:17:43.499Z,8.74
2023-02-23T03:20:47.774Z,8.75
2023-02-23T03:23:41.823Z,8.74
2023-02-23T03:26:40.216Z,8.74
2023-02-23T03:29:48.552Z,8.76
2023-02-23T03:32:33.669Z,8.67
2023-02-23T03:35:23.991Z,8.59
2023-02-23T03:38:24.094Z,8.55
2023-02-23T03:41:12.362Z,8.57
2023-02-23T03:44:04.187Z,8.64
2023-02-23T03:46:50.550Z,8.71
2023-02-23T03:49:38.792Z,8.62
2023-02-23T03:52:35.773Z,8.64
2023-02-23T03:55:25.549Z,8.57
2023-02-23T03:58:15.882Z,8.69
2023-02-23T04:01:06.176Z,8.60
2023-02-23T04:03:55.461Z,8.60
2023-02-23T04:06:44.272Z,8.65
2023-02-23T04:09:30.154Z,8.71
2023-02-23T04:12:27.496Z,8.74
2023-02-23T04:15:19.946Z,8.68
2023-02-23T04:17:46.611Z,8.64
2023-02-23T04:20:14.317Z,8.56
2023-02-23T04:22:40.756Z,8.65
2023-02-23T04:25:09.039Z,8.73
2023-02-23T04:27:36.160Z,8.82
2023-02-23T04:30:03.804Z,8.66
2023-02-23T04:32:30.725Z,8.57
2023-02-23T04:34:57.106Z,8.55
2023-02-23T04:37:23.447Z,8.54
2023-02-23T04:39:50.316Z,8.53
2023-02-23T04:42:18.132Z,8.51
2023-02-23T04:44:45.296Z,8.53
2023-02-23T04:47:12.645Z,8.55
2023-02-23T04:49:39.010Z,8.50
2023-02-23T04:52:05.622Z,8.49
2023-02-23T04:54:31.994Z,8.49
2023-02-23T04:56:58.403Z,8.51
2023-02-23T04:59:24.802Z,8.48
2023-02-23T05:01:51.188Z,8.50
2023-02-23T05:04:17.583Z,8.47
2023-02-23T05:06:44.037Z,8.46
2023-02-23T05:09:10.519Z,8.52
2023-02-23T05:11:38.079Z,8.60
2023-02-23T05:14:04.784Z,8.58
2023-02-23T05:16:31.466Z,8.45
2023-02-23T05:18:58.748Z,8.42
2023-02-23T05:21:25.135Z,8.48
2023-02-23T05:23:51.560Z,8.46
2023-02-23T05:26:18.105Z,8.47
2023-02-23T05:28:44.935Z,8.45
2023-02-23T05:31:12.035Z,8.35
2023-02-23T05:33:42.341Z,8.25
2023-02-23T05:36:11.053Z,8.24
2023-02-23T05:38:38.134Z,8.25
2023-02-23T05:41:06.737Z,8.28
2023-02-23T05:43:33.415Z,8.26
2023-02-23T05:46:01.278Z,8.29
2023-02-23T05:48:28.953Z,8.27
2023-02-23T05:50:55.414Z,8.24
2023-02-23T05:53:21.770Z,8.17
2023-02-23T05:55:48.175Z,8.18
2023-02-23T05:58:14.567Z,8.15
2023-02-23T06:00:41.119Z,8.14
2023-02-23T06:03:07.598Z,8.17
2023-02-23T06:05:34.132Z,8.30
2023-02-23T06:08:00.566Z,8.30
2023-02-23T06:10:27.031Z,8.31
2023-02-23T06:12:53.419Z,8.26
2023-02-23T06:15:19.817Z,8.33
2023-02-23T06:17:46.222Z,8.27
2023-02-23T06:20:13.408Z,8.19
2023-02-23T06:22:39.867Z,8.17
2023-02-23T06:25:12.488Z,8.20
2023-02-23T06:27:40.221Z,8.24
2023-02-23T06:30:07.042Z,8.21
2023-02-23T06:32:33.470Z,8.13
2023-02-23T06:34:59.875Z,8.12
2023-02-23T06:37:26.276Z,8.19
2023-02-23T06:39:52.724Z,8.22
2023-02-23T06:42:19.051Z,8.18
2023-02-23T06:44:45.425Z,8.22
2023-02-23T06:47:11.981Z,8.22
2023-02-23T06:49:40.341Z,8.27
2023-02-23T06:52:08.146Z,8.34
2023-02-23T06:54:34.561Z,8.27
2023-02-23T06:57:01.338Z,8.29
2023-02-23T06:59:27.754Z,8.27
2023-02-23T07:01:54.173Z,8.32
2023-02-23T07:04:20.664Z,8.46
2023-02-23T07:06:47.740Z,8.46
2023-02-23T07:09:15.487Z,8.48
2023-02-23T07:11:44.622Z,8.44
2023-02-23T07:14:15.364Z,8.47
2023-02-23T07:16:48.416Z,8.52
2023-02-23T07:19:14.788Z,8.55
2023-02-23T07:21:41.163Z,8.58
2023-02-23T07:24:08.952Z,8.61
2023-02-23T07:26:35.640Z,8.59
2023-02-23T07:29:02.820Z,8.59
2023-02-23T07:31:29.296Z,8.68
2023-02-23T07:33:55.847Z,8.63
2023-02-23T07:36:23.749Z,8.63
2023-02-23T07:38:50.493Z,8.61
2023-02-23T07:41:17.288Z,8.64
2023-02-23T07:43:43.798Z,8.70
2023-02-23T07:46:10.225Z,8.74
2023-02-23T07:48:36.692Z,8.75
2023-02-23T07:51:10.118Z,8.82
2023-02-23T07:53:36.604Z,8.86
2023-02-23T07:56:04.030Z,8.93
2023-02-23T07:58:31.469Z,8.94
2023-02-23T08:00:57.914Z,9.01
2023-02-23T08:03:24.346Z,8.94
2023-02-23T08:05:50.734Z,8.85
2023-02-23T08:08:17.159Z,8.90
2023-02-23T08:10:43.551Z,8.96
2023-02-23T08:13:09.900Z,8.90
2023-02-23T08:15:36.278Z,8.85
2023-02-23T08:18:02.654Z,8.87
2023-02-23T08:20:29.138Z,8.91
2023-02-23T08:22:59.535Z,9.09
2023-02-23T08:25:27.409Z,9.15
2023-02-23T08:27:54.460Z,9.21
2023-02-23T08:30:22.983Z,9.21
2023-02-23T08:32:50.786Z,9.27
2023-02-23T08:35:20.060Z,9.39
2023-02-23T08:37:46.642Z,9.45
2023-02-23T08:40:15.503Z,9.45
2023-02-23T08:42:42.600Z,9.48
2023-02-23T08:45:09.738Z,9.49
2023-02-23T08:47:36.742Z,9.58
2023-02-23T08:50:05.108Z,9.60
2023-02-23T08:52:31.786Z,9.65
2023-02-23T08:54:58.450Z,9.70
2023-02-23T08:57:24.851Z,9.83
2023-02-23T08:59:51.265Z,9.75
2023-02-23T09:02:18.103Z,9.74
2023-02-23T09:04:44.589Z,9.89
2023-02-23T09:07:16.090Z,9.90
2023-02-23T09:09:42.460Z,9.96
2023-02-23T09:12:08.875Z,10.00
2023-02-23T09:14:36.617Z,10.02
2023-02-23T09:17:03.403Z,10.07
2023-02-23T09:19:29.859Z,10.12
2023-02-23T09:21:56.213Z,10.11
2023-02-23T09:24:22.635Z,10.06
2023-02-23T09:26:49.652Z,10.07
2023-02-23T09:29:16.030Z,10.12
2023-02-23T09:31:43.603Z,10.03
2023-02-23T09:34:12.287Z,10.02
2023-02-23T09:36:38.864Z,9.92
2023-02-23T09:39:05.225Z,10.01
2023-02-23T09:42:19.675Z,9.98
2023-02-23T09:44:54.937Z,10.09
2023-02-23T09:47:22.641Z,10.15
2023-02-23T09:49:50.884Z,10.28
2023-02-23T09:52:25.118Z,10.40
2023-02-23T09:54:51.872Z,10.42
2023-02-23T09:57:25.402Z,10.53
2023-02-23T09:59:51.775Z,10.61
2023-02-23T10:02:23.079Z,10.65
2023-02-23T10:04:56.207Z,10.64
2023-02-23T10:07:39.562Z,10.68
2023-02-23T10:10:15.216Z,10.81
2023-02-23T10:13:13.086Z,10.86
2023-02-23T10:16:02.221Z,10.90
2023-02-23T10:18:46.185Z,11.01
2023-02-23T10:21:19.863Z,10.98
2023-02-23T10:23:49.582Z,10.99
2023-02-23T10:26:20.521Z,11.00
2023-02-23T10:28:47.753Z,11.03
2023-02-23T10:31:28.837Z,11.01
2023-02-23T10:33:58.650Z,11.02
2023-02-23T10:36:44.315Z,11.24
2023-02-23T10:39:13.059Z,11.31
2023-02-23T10:41:41.640Z,11.37
2023-02-23T10:44:19.665Z,11.43
2023-02-23T10:46:54.167Z,11.42
2023-02-23T10:49:24.646Z,11.37
2023-02-23T10:51:52.255Z,11.38
2023-02-23T10:54:35.545Z,11.40
2023-02-23T10:57:03.640Z,11.36
2023-02-23T10:59:30.172Z,11.42
2023-02-23T11:02:03.163Z,11.43
2023-02-23T11:04:32.217Z,11.45
2023-02-23T11:07:17.847Z,11.48
2023-02-23T11:09:47.452Z,11.45
2023-02-23T11:12:35.817Z,11.54
2023-02-23T11:15:46.368Z,11.36
2023-02-23T11:18:24.589Z,11.45
2023-02-23T11:20:51.870Z,11.46
2023-02-23T11:23:28.952Z,11.44
2023-02-23T11:26:01.465Z,11.40
2023-02-23T11:28:30.239Z,11.34
2023-02-23T11:31:04.207Z,11.37
2023-02-23T11:33:35.949Z,11.33
2023-02-23T11:36:27.446Z,11.36
2023-02-23T11:39:05.772Z,11.39
2023-02-23T11:41:35.185Z,11.42
2023-02-23T11:44:06.006Z,11.41
2023-02-23T11:46:37.703Z,11.42
2023-02-23T11:49:14.630Z,11.39
2023-02-23T11:51:46.166Z,11.41
2023-02-23T11:54:29.706Z,11.41
2023-02-23T11:56:57.938Z,11.38
2023-02-23T11:59:30.904Z,11.41
2023-02-23T12:02:06.432Z,11.39
2023-02-23T12:04:37.327Z,11.46
2023-02-23T12:07:31.464Z,11.44
2023-02-23T12:10:06.394Z,11.45
2023-02-23T12:12:39.999Z,11.41
2023-02-23T12:15:16.060Z,11.46
2023-02-23T12:17:53.581Z,11.46
2023-02-23T12:20:30.735Z,11.40
2023-02-23T12:23:03.285Z,11.38
2023-02-23T12:25:38.688Z,11.49
2023-02-23T12:28:22.354Z,11.48
2023-02-23T12:30:58.520Z,11.51
2023-02-23T12:33:34.277Z,11.51
2023-02-23T12:36:11.400Z,11.51
2023-02-23T12:39:17.740Z,11.54
2023-02-23T12:42:01.314Z,11.58
2023-02-23T12:44:46.193Z,11.58
2023-02-23T12:47:27.144Z,11.53
2023-02-23T12:50:13.233Z,11.61
2023-02-23T12:52:50.917Z,11.63
2023-02-23T12:55:30.139Z,11.62
2023-02-23T12:58:10.402Z,11.65
2023-02-23T13:01:04.853Z,11.66
2023-02-23T13:03:49.988Z,11.65
2023-02-23T13:06:22.734Z,11.65
2023-02-23T13:09:01.352Z,11.67
2023-02-23T13:11:37.897Z,11.70
2023-02-23T13:14:14.588Z,11.70
2023-02-23T13:16:44.353Z,11.58
2023-02-23T13:19:22.976Z,11.54
2023-02-23T13:21:58.020Z,11.62
2023-02-23T13:24:30.799Z,11.61
2023-02-23T13:27:15.291Z,11.65
2023-02-23T13:29:48.734Z,11.69
2023-02-23T13:32:29.282Z,11.69
2023-02-23T13:35:01.155Z,11.66
2023-02-23T13:37:39.883Z,11.72
2023-02-23T13:40:26.008Z,11.74
2023-02-23T13:43:23.064Z,11.75
2023-02-23T13:46:14.988Z,11.73
2023-02-23T13:48:56.139Z,11.77
2023-02-23T13:51:29.574Z,11.80
2023-02-23T13:54:04.820Z,11.85
2023-02-23T13:56:37.995Z,11.86
2023-02-23T13:59:09.585Z,11.83
2023-02-23T14:01:37.800Z,11.74
2023-02-23T14:04:12.730Z,11.72
2023-02-23T14:06:49.850Z,11.70
2023-02-23T14:09:24.272Z,11.70
2023-02-23T14:11:56.419Z,11.74
2023-02-23T14:14:32.005Z,11.75
2023-02-23T14:17:17.440Z,11.72
2023-02-23T14:20:06.718Z,11.77
2023-02-23T14:22:34.493Z,11.75
2023-02-23T14:25:32.951Z,11.73
2023-02-23T14:28:01.991Z,11.75
2023-02-23T14:30:30.237Z,11.72
2023-02-23T14:33:21.101Z,11.69
2023-02-23T14:35:48.321Z,11.76
2023-02-23T14:38:38.758Z,11.72
2023-02-23T14:41:12.780Z,11.69
2023-02-23T14:43:42.911Z,11.70
2023-02-23T14:46:21.399Z,11.71
2023-02-23T14:49:02.065Z,11.65
2023-02-23T14:51:39.630Z,11.68
2023-02-23T14:54:23.457Z,11.68
2023-02-23T14:56:53.641Z,11.66
2023-02-23T14:59:23.412Z,11.68
2023-02-23T15:01:51.755Z,11.67
2023-02-23T15:04:23.846Z,11.63
2023-02-23T15:06:56.173Z,11.66
2023-02-23T15:09:29.166Z,11.65
2023-02-23T15:11:57.704Z,11.63
2023-02-23T15:14:28.525Z,11.64
2023-02-23T15:16:56.632Z,11.59
2023-02-23T15:19:25.769Z,11.59
2023-02-23T15:21:55.142Z,11.56
2023-02-23T15:24:27.494Z,11.55
2023-02-23T15:26:56.155Z,11.54
2023-02-23T15:29:32.369Z,11.52
2023-02-23T15:32:15.023Z,11.51
2023-02-23T15:34:41.617Z,11.53
2023-02-23T15:37:14.640Z,11.52
2023-02-23T15:39:53.059Z,11.41
2023-02-23T15:42:28.013Z,11.40
2023-02-23T15:45:02.816Z,11.44
2023-02-23T15:47:34.786Z,11.34
2023-02-23T15:50:18.118Z,11.28
2023-02-23T15:52:51.354Z,11.25
2023-02-23T15:55:23.972Z,11.16
2023-02-23T15:57:56.452Z,11.12
2023-02-23T16:00:32.985Z,11.13
2023-02-23T16:03:02.420Z,11.11
2023-02-23T16:05:38.328Z,11.11
2023-02-23T16:08:22.976Z,11.14
2023-02-23T16:10:54.959Z,11.12
2023-02-23T16:13:22.128Z,11.10
2023-02-23T16:15:50.112Z,11.14
2023-02-23T16:18:20.233Z,11.15
2023-02-23T16:20:55.818Z,11.10
2023-02-23T16:23:44.578Z,11.13
2023-02-23T16:26:19.361Z,11.06
2023-02-23T16:28:46.713Z,11.01
2023-02-23T16:31:19.822Z,10.98
2023-02-23T16:33:52.762Z,10.95
2023-02-23T16:36:22.472Z,10.91
2023-02-23T16:39:00.429Z,10.96
2023-02-23T16:41:30.737Z,10.90
2023-02-23T16:44:00.548Z,10.91
2023-02-23T16:46:31.764Z,10.84
2023-02-23T16:49:10.196Z,10.82
2023-02-23T16:51:36.806Z,10.78
2023-02-23T16:54:04.040Z,10.73
2023-02-23T16:56:31.499Z,10.74
2023-02-23T16:59:03.629Z,10.84
2023-02-23T17:01:30.475Z,10.88
2023-02-23T17:03:59.046Z,10.78
2023-02-23T17:06:25.741Z,10.74
2023-02-23T17:08:58.325Z,10.76
2023-02-23T17:11:25.863Z,10.74
2023-02-23T17:13:52.256Z,10.69
2023-02-23T17:16:19.705Z,10.67
2023-02-23T17:18:46.521Z,10.74
2023-02-23T17:21:14.313Z,10.76
2023-02-23T17:23:51.025Z,10.66
2023-02-23T17:26:20.423Z,10.61
2023-02-23T17:28:47.354Z,10.57
2023-02-23T17:31:16.132Z,10.64
2023-02-23T17:33:43.220Z,10.73
2023-02-23T17:36:14.250Z,10.76
2023-02-23T17:38:44.405Z,10.73
2023-02-23T17:41:18.969Z,10.65
2023-02-23T17:43:45.828Z,10.61
2023-02-23T17:46:12.973Z,10.60
2023-02-23T17:48:40.701Z,10.59
2023-02-23T17:51:10.133Z,10.68
2023-02-23T17:53:36.596Z,10.68
2023-02-23T17:56:03.024Z,10.60
2023-02-23T17:58:29.843Z,10.60
2023-02-23T18:00:58.648Z,10.53
2023-02-23T18:03:31.909Z,10.42
2023-02-23T18:06:03.244Z,10.46
2023-02-23T18:08:30.524Z,10.47
2023-02-23T18:10:57.491Z,10.52
2023-02-23T18:13:24.519Z,10.50
2023-02-23T18:15:58.254Z,10.50
2023-02-23T18:18:24.812Z,10.48
2023-02-23T18:20:52.890Z,10.57
2023-02-23T18:23:20.730Z,10.45
2023-02-23T18:25:47.557Z,10.57
2023-02-23T18:28:14.566Z,10.57
2023-02-23T18:30:42.490Z,10.58
2023-02-23T18:33:09.507Z,10.57
2023-02-23T18:35:38.839Z,10.57
2023-02-23T18:38:08.690Z,10.51
2023-02-23T18:40:38.210Z,10.44
2023-02-23T18:43:05.349Z,10.47
2023-02-23T18:45:32.208Z,10.50
2023-02-23T18:47:58.628Z,10.54
2023-02-23T18:50:26.282Z,10.57
2023-02-23T18:52:55.656Z,10.54
2023-02-23T18:55:23.149Z,10.52
2023-02-23T18:57:52.545Z,10.47
2023-02-23T19:00:19.962Z,10.50
2023-02-23T19:02:47.262Z,10.46
2023-02-23T19:05:15.156Z,10.41
2023-02-23T19:07:41.792Z,10.39
2023-02-23T19:10:12.316Z,10.52
2023-02-23T19:12:39.791Z,10.52
2023-02-23T19:15:08.175Z,10.53
2023-02-23T19:17:35.320Z,10.51
2023-02-23T19:20:01.848Z,10.50
2023-02-23T19:22:30.655Z,10.49
2023-02-23T19:24:57.055Z,10.48
2023-02-23T19:27:23.507Z,10.44
2023-02-23T19:29:50.022Z,10.43
2023-02-23T19:32:16.645Z,10.44
2023-02-23T19:34:46.247Z,10.41
2023-02-23T19:37:13.172Z,10.40
2023-02-23T19:39:39.559Z,10.42
2023-02-23T19:42:06.021Z,10.40
2023-02-23T19:44:32.638Z,10.36
2023-02-23T19:46:59.103Z,10.25
2023-02-23T19:49:25.758Z,10.31
2023-02-23T19:51:52.984Z,10.25
2023-02-23T19:54:20.142Z,10.38
2023-02-23T19:56:48.052Z,10.46
2023-02-23T19:59:14.589Z,10.48
2023-02-23T20:01:41.039Z,10.43
2023-02-23T20:04:09.542Z,10.47
2023-02-23T20:06:44.397Z,10.42
2023-02-23T20:09:11.022Z,10.47
2023-02-23T20:11:37.790Z,10.27
2023-02-23T20:14:05.140Z,10.16
2023-02-23T20:16:31.679Z,10.17
2023-02-23T20:18:59.200Z,10.21
2023-02-23T20:21:27.643Z,10.26
2023-02-23T20:23:55.395Z,10.22
2023-02-23T20:26:26.294Z,10.26
2023-02-23T20:28:57.109Z,10.18
2023-02-23T20:31:26.917Z,10.18
2023-02-23T20:33:56.069Z,10.21
2023-02-23T20:36:23.635Z,10.21
2023-02-23T20:38:50.095Z,10.11
2023-02-23T20:41:17.329Z,10.12
2023-02-23T20:43:44.258Z,10.14
2023-02-23T20:46:15.611Z,10.23
2023-02-23T20:48:42.812Z,10.27
2023-02-23T20:51:12.655Z,10.26
2023-02-23T20:53:40.255Z,10.25
2023-02-23T20:56:08.804Z,10.27
2023-02-23T20:58:35.335Z,10.36
2023-02-23T21:01:06.056Z,10.32
2023-02-23T21:03:34.323Z,10.22
2023-02-23T21:06:00.893Z,10.14
2023-02-23T21:08:28.697Z,10.19
2023-02-23T21:10:55.166Z,10.20
2023-02-23T21:13:23.044Z,10.30
2023-02-23T21:15:58.534Z,10.18
2023-02-23T21:18:25.180Z,10.15
2023-02-23T21:20:51.595Z,10.00
2023-02-23T21:23:20.380Z,10.02
2023-02-23T21:25:48.872Z,9.99
2023-02-23T21:28:15.403Z,10.00
2023-02-23T21:30:41.784Z,10.00
2023-02-23T21:33:08.357Z,10.09
2023-02-23T21:35:38.148Z,9.99
2023-02-23T21:38:04.638Z,9.92
2023-02-23T21:40:31.120Z,9.93
2023-02-23T21:42:58.242Z,9.94
2023-02-23T21:45:24.613Z,9.93
2023-02-23T21:47:50.987Z,9.93
2023-02-23T21:50:19.320Z,9.96
2023-02-23T21:52:48.540Z,9.82
2023-02-23T21:55:21.473Z,9.93
2023-02-23T21:57:49.168Z,9.81
2023-02-23T22:00:16.315Z,9.66
2023-02-23T22:02:46.113Z,9.57
2023-02-23T22:05:14.014Z,9.62
2023-02-23T22:07:40.522Z,9.72
2023-02-23T22:10:07.184Z,9.64
2023-02-23T22:12:33.573Z,9.64
2023-02-23T22:15:06.874Z,9.56
2023-02-23T22:17:33.796Z,9.51
2023-02-23T22:20:00.345Z,9.54
2023-02-23T22:22:27.298Z,9.47
2023-02-23T22:24:53.778Z,9.56
2023-02-23T22:27:20.372Z,9.48
2023-02-23T22:29:46.738Z,9.45
2023-02-23T22:32:13.324Z,9.41
2023-02-23T22:34:39.960Z,9.47
2023-02-23T22:37:06.356Z,9.44
2023-02-23T22:39:33.262Z,9.39
2023-02-23T22:41:59.699Z,9.38
2023-02-23T22:44:26.160Z,9.37
2023-02-23T22:46:53.126Z,9.38
2023-02-23T22:49:20.443Z,9.44
2023-02-23T22:51:47.303Z,9.38
2023-02-23T22:54:13.840Z,9.44
2023-02-23T22:56:42.144Z,9.44
2023-02-23T22:59:10.738Z,9.53
2023-02-23T23:01:38.722Z,9.45
2023-02-23T23:04:10.350Z,9.46
2023-02-23T23:06:40.115Z,9.39
2023-02-23T23:09:08.585Z,9.29
2023-02-23T23:11:41.465Z,9.31
2023-02-23T23:14:10.292Z,9.46
2023-02-23T23:16:47.402Z,9.50
2023-02-23T23:19:19.058Z,9.47
2023-02-23T23:21:48.235Z,9.43
2023-02-23T23:24:15.468Z,9.41
2023-02-23T23:26:44.175Z,9.36
2023-02-23T23:29:14.268Z,9.39
2023-02-23T23:31:46.043Z,9.46
2023-02-23T23:34:13.561Z,9.49
2023-02-23T23:36:43.242Z,9.41
2023-02-23T23:39:15.946Z,9.29
2023-02-23T23:41:43.846Z,9.36
2023-02-23T23:44:10.690Z,9.35
2023-02-23T23:46:42.594Z,9.37
2023-02-23T23:49:17.166Z,9.41
2023-02-23T23:51:46.320Z,9.43
2023-02-23T23:54:14.967Z,9.42
2023-02-23T23:56:41.777Z,9.40
2023-02-23T23:59:10.971Z,9.40
